createdAt,value
2018-02-09T00:01:56.652Z,-2.80
2018-02-09T00:04:24.845Z,-2.60
2018-02-09T00:06:53.105Z,-2.50
2018-02-09T00:09:21.353Z,-2.50
2018-02-09T00:11:50.087Z,-2.40
2018-02-09T00:14:18.344Z,-2.40
2018-02-09T00:16:46.564Z,-2.40
2018-02-09T00:19:14.784Z,-2.40
2018-02-09T00:21:43.039Z,-2.40
2018-02-09T00:24:11.255Z,-2.30
2018-02-09T00:26:39.453Z,-2.40
2018-02-09T00:29:07.689Z,-2.40
2018-02-09T00:31:36.618Z,-2.40
2018-02-09T00:34:04.832Z,-2.40
2018-02-09T00:36:33.099Z,-2.40
2018-02-09T00:39:01.371Z,-2.40
2018-02-09T00:41:33.537Z,-2.40
2018-02-09T00:44:03.067Z,-2.40
2018-02-09T00:46:31.318Z,-2.40
2018-02-09T00:48:59.544Z,-2.40
2018-02-09T00:51:28.091Z,-2.50
2018-02-09T00:53:57.194Z,-2.50
2018-02-09T00:56:25.408Z,-2.50
2018-02-09T00:58:53.627Z,-2.50
2018-02-09T01:01:21.884Z,-2.50
2018-02-09T01:03:50.856Z,-2.50
2018-02-09T01:06:19.073Z,-2.50
2018-02-09T01:08:47.309Z,-2.50
2018-02-09T01:11:15.502Z,-2.60
2018-02-09T01:13:44.460Z,-2.70
2018-02-09T01:16:12.692Z,-2.60
2018-02-09T01:18:40.920Z,-2.60
2018-02-09T01:21:09.196Z,-2.70
2018-02-09T01:23:38.153Z,-2.70
2018-02-09T01:26:06.392Z,-2.70
2018-02-09T01:28:34.636Z,-2.70
2018-02-09T01:31:02.828Z,-2.70
2018-02-09T01:33:31.804Z,-2.70
2018-02-09T01:36:00.104Z,-2.80
2018-02-09T01:38:28.380Z,-2.80
2018-02-09T01:40:56.601Z,-2.80
2018-02-09T01:43:24.839Z,-2.80
2018-02-09T01:45:53.041Z,-2.80
2018-02-09T01:48:21.284Z,-2.80
2018-02-09T01:50:49.524Z,-2.80
2018-02-09T01:53:17.712Z,-2.90
2018-02-09T01:55:46.712Z,-2.90
2018-02-09T01:58:14.904Z,-2.90
2018-02-09T02:00:43.109Z,-2.90
2018-02-09T02:03:11.785Z,-2.90
2018-02-09T02:05:40.124Z,-2.90
2018-02-09T02:08:08.321Z,-2.90
2018-02-09T02:10:36.512Z,-2.90
2018-02-09T02:13:04.729Z,-3.00
2018-02-09T02:15:33.700Z,-3.30
2018-02-09T02:18:02.030Z,-3.40
2018-02-09T02:20:30.241Z,-3.30
2018-02-09T02:22:58.432Z,-3.40
2018-02-09T02:25:26.693Z,-3.30
2018-02-09T02:27:55.004Z,-3.20
2018-02-09T02:30:23.223Z,-3.20
2018-02-09T02:32:51.539Z,-3.10
2018-02-09T02:35:20.496Z,-3.10
2018-02-09T02:37:48.704Z,-3.20
2018-02-09T02:40:17.680Z,-3.20
2018-02-09T02:42:45.920Z,-3.20
2018-02-09T02:45:14.114Z,-3.20
2018-02-09T02:47:42.324Z,-3.20
2018-02-09T02:50:11.305Z,-3.20
2018-02-09T02:52:39.517Z,-3.30
2018-02-09T02:55:07.756Z,-3.20
2018-02-09T02:57:36.748Z,-3.30
2018-02-09T03:00:04.960Z,-3.30
2018-02-09T03:02:33.420Z,-3.30
2018-02-09T03:05:01.613Z,-3.30
2018-02-09T03:07:29.832Z,-3.30
2018-02-09T03:09:58.184Z,-3.30
2018-02-09T03:12:26.424Z,-3.30
2018-02-09T03:14:54.626Z,-3.30
2018-02-09T03:17:23.601Z,-3.30
2018-02-09T03:19:51.820Z,-3.30
2018-02-09T03:22:20.022Z,-3.40
2018-02-09T03:24:49.037Z,-3.40
2018-02-09T03:27:17.256Z,-3.40
2018-02-09T03:29:45.475Z,-3.40
2018-02-09T03:32:13.728Z,-3.40
2018-02-09T03:34:42.714Z,-3.50
2018-02-09T03:37:10.928Z,-3.50
2018-02-09T03:39:39.156Z,-3.50
2018-02-09T03:42:07.348Z,-3.50
2018-02-09T03:44:36.332Z,-3.50
2018-02-09T03:47:05.340Z,-3.60
2018-02-09T03:49:34.314Z,-3.60
2018-02-09T03:52:02.524Z,-3.60
2018-02-09T03:54:30.737Z,-3.60
2018-02-09T03:56:58.932Z,-3.60
2018-02-09T03:59:27.265Z,-3.60
2018-02-09T04:01:55.476Z,-3.60
2018-02-09T04:04:23.672Z,-3.60
2018-02-09T04:06:52.757Z,-3.60
2018-02-09T04:09:21.740Z,-3.60
2018-02-09T04:11:50.017Z,-3.60
2018-02-09T04:14:18.245Z,-3.60
2018-02-09T04:16:46.468Z,-3.60
2018-02-09T04:19:14.707Z,-3.60
2018-02-09T04:21:42.901Z,-3.60
2018-02-09T04:24:11.089Z,-3.60
2018-02-09T04:26:40.124Z,-3.60
2018-02-09T04:29:08.325Z,-3.60
2018-02-09T04:31:36.535Z,-3.60
2018-02-09T06:00:39.201Z,-1.80
2018-02-09T06:03:07.415Z,-1.70
2018-02-09T06:05:35.635Z,-1.60
2018-02-09T06:08:03.979Z,-1.50
2018-02-09T06:10:33.338Z,-1.30
2018-02-09T06:13:01.558Z,-1.30
2018-02-09T06:15:30.576Z,-1.10
2018-02-09T06:17:58.792Z,-1.10
2018-02-09T06:20:26.993Z,-1.00
2018-02-09T06:22:56.071Z,-1.10
2018-02-09T06:25:24.565Z,-1.10
2018-02-09T06:27:52.757Z,-1.10
2018-02-09T06:30:21.733Z,-0.90
2018-02-09T06:32:51.033Z,-0.80
2018-02-09T06:35:20.967Z,-0.80
2018-02-09T06:37:49.217Z,-0.80
2018-02-09T06:40:17.414Z,-0.80
2018-02-09T06:42:45.617Z,-0.70
2018-02-09T06:45:13.850Z,-0.70
2018-02-09T06:47:42.808Z,-0.60
2018-02-09T06:50:10.996Z,-0.60
2018-02-09T06:52:39.232Z,-0.50
2018-02-09T06:55:07.445Z,-0.60
2018-02-09T06:57:36.397Z,-0.50
2018-02-09T07:00:04.609Z,-0.60
2018-02-09T07:02:32.814Z,-0.40
2018-02-09T07:05:01.084Z,-0.40
2018-02-09T07:07:29.277Z,-0.30
2018-02-09T07:09:57.483Z,-0.20
2018-02-09T07:12:25.723Z,-0.10
2018-02-09T07:14:54.313Z,0.10
2018-02-09T07:17:22.529Z,0.10
2018-02-09T07:19:50.871Z,0.20
2018-02-09T07:22:19.092Z,0.40
2018-02-09T07:24:47.280Z,0.40
2018-02-09T07:27:16.252Z,0.60
2018-02-09T07:29:44.464Z,0.60
2018-02-09T07:32:12.676Z,0.70
2018-02-09T07:34:40.902Z,0.80
2018-02-09T07:37:09.856Z,1.00
2018-02-09T07:39:38.146Z,1.00
2018-02-09T07:42:06.363Z,1.10
2018-02-09T07:44:34.568Z,1.20
2018-02-09T07:47:02.813Z,1.30
2018-02-09T07:49:31.048Z,1.30
2018-02-09T07:52:00.060Z,1.40
2018-02-09T07:54:28.316Z,1.40
2018-02-09T07:56:57.403Z,1.50
2018-02-09T07:59:25.615Z,1.50
2018-02-09T08:01:53.857Z,1.20
2018-02-09T08:04:22.831Z,1.30
2018-02-09T08:06:51.021Z,1.40
2018-02-09T08:09:19.212Z,1.50
2018-02-09T08:11:47.456Z,1.60
2018-02-09T08:14:15.675Z,1.10
2018-02-09T08:16:43.856Z,1.10
2018-02-09T08:19:12.069Z,1.10
2018-02-09T08:21:40.343Z,0.90
2018-02-09T08:24:08.534Z,1.20
2018-02-09T08:26:36.752Z,1.30
2018-02-09T08:29:04.936Z,1.50
2018-02-09T08:31:33.145Z,1.70
2018-02-09T08:34:01.393Z,1.90
2018-02-09T08:36:29.601Z,2.10
2018-02-09T08:38:57.788Z,2.40
2018-02-09T08:41:26.793Z,2.60
2018-02-09T08:43:55.004Z,2.60
2018-02-09T08:46:23.281Z,2.60
2018-02-09T08:48:51.473Z,2.60
2018-02-09T08:51:19.768Z,2.70
2018-02-09T08:53:48.025Z,2.80
2018-02-09T08:56:16.241Z,2.90
2018-02-09T08:58:44.489Z,3.20
2018-02-09T09:01:12.860Z,3.30
2018-02-09T09:03:41.044Z,3.50
2018-02-09T09:06:09.272Z,3.50
2018-02-09T09:08:37.551Z,3.00
2018-02-09T09:11:05.764Z,3.00
2018-02-09T09:13:33.944Z,3.10
2018-02-09T09:16:02.940Z,3.10
2018-02-09T09:18:31.901Z,3.20
2018-02-09T09:21:00.131Z,3.20
2018-02-09T09:23:28.328Z,3.30
2018-02-09T09:25:56.598Z,3.40
2018-02-09T09:28:24.845Z,3.40
2018-02-09T09:30:53.029Z,3.40
2018-02-09T09:33:21.218Z,3.60
2018-02-09T09:35:49.494Z,3.50
2018-02-09T09:38:17.684Z,3.20
2018-02-09T09:40:45.885Z,3.50
2018-02-09T09:43:14.169Z,3.60
2018-02-09T09:45:43.126Z,3.70
2018-02-09T09:48:11.331Z,3.70
2018-02-09T09:50:40.320Z,3.70
2018-02-09T09:53:09.327Z,3.80
2018-02-09T09:55:38.309Z,3.50
2018-02-09T09:58:07.288Z,3.50
2018-02-09T10:00:35.534Z,3.50
2018-02-09T10:03:03.920Z,3.60
2018-02-09T10:05:32.137Z,3.60
2018-02-09T10:08:01.146Z,3.80
2018-02-09T10:10:29.353Z,3.70
2018-02-09T10:12:57.541Z,3.90
2018-02-09T10:15:25.752Z,3.80
2018-02-09T10:17:53.972Z,3.50
2018-02-09T10:20:22.194Z,3.60
2018-02-09T10:22:51.163Z,3.50
2018-02-09T10:25:19.529Z,3.50
2018-02-09T10:27:47.884Z,3.60
2018-02-09T10:30:16.075Z,3.70
2018-02-09T10:32:44.260Z,4.00
2018-02-09T10:35:12.475Z,4.20
2018-02-09T10:37:40.720Z,4.30
2018-02-09T10:40:08.906Z,4.30
2018-02-09T10:42:37.866Z,4.40
2018-02-09T10:45:06.100Z,4.40
2018-02-09T10:47:34.325Z,4.60
2018-02-09T10:50:02.513Z,4.80
2018-02-09T10:52:31.486Z,5.10
2018-02-09T10:54:59.708Z,5.10
2018-02-09T10:57:27.961Z,5.10
2018-02-09T10:59:56.932Z,4.90
2018-02-09T11:02:25.260Z,4.90
2018-02-09T11:04:53.476Z,5.00
2018-02-09T11:07:22.005Z,5.10
2018-02-09T11:09:50.208Z,4.80
2018-02-09T11:12:20.767Z,4.60
2018-02-09T11:14:48.965Z,4.60
2018-02-09T11:17:17.925Z,4.50
2018-02-09T11:19:46.179Z,4.50
2018-02-09T11:22:14.388Z,4.50
2018-02-09T11:24:42.580Z,4.20
2018-02-09T11:27:11.601Z,4.20
2018-02-09T11:29:39.788Z,4.20
2018-02-09T11:32:08.001Z,4.60
2018-02-09T11:34:36.230Z,4.90
2018-02-09T11:37:04.891Z,5.40
2018-02-09T11:39:33.137Z,5.70
2018-02-09T11:42:02.124Z,6.10
2018-02-09T11:44:30.340Z,6.10
2018-02-09T11:46:58.584Z,6.50
2018-02-09T11:49:27.542Z,7.20
2018-02-09T11:51:55.777Z,7.20
2018-02-09T11:54:24.023Z,7.40
2018-02-09T11:56:53.008Z,7.50
2018-02-09T11:59:22.005Z,7.50
2018-02-09T12:01:51.041Z,7.60
2018-02-09T12:04:19.233Z,7.70
2018-02-09T12:06:47.434Z,7.40
2018-02-09T12:09:15.966Z,7.90
2018-02-09T12:11:44.225Z,8.40
2018-02-09T12:14:12.417Z,8.60
2018-02-09T12:16:40.672Z,8.80
2018-02-09T12:19:09.636Z,8.70
2018-02-09T12:21:37.840Z,8.70
2018-02-09T12:24:06.045Z,8.80
2018-02-09T12:26:34.381Z,8.90
2018-02-09T12:29:02.633Z,8.40
2018-02-09T12:31:31.616Z,8.40
2018-02-09T12:33:59.893Z,8.40
2018-02-09T12:36:28.120Z,8.70
2018-02-09T12:38:56.396Z,8.80
2018-02-09T12:41:24.623Z,9.20
2018-02-09T12:43:52.839Z,9.30
2018-02-09T12:46:21.082Z,10.20
2018-02-09T12:48:50.082Z,10.80
2018-02-09T12:51:19.840Z,10.70
2018-02-09T12:53:48.065Z,10.70
2018-02-09T12:56:17.100Z,11.40
2018-02-09T12:58:45.304Z,11.30
2018-02-09T13:01:13.528Z,11.80
2018-02-09T13:03:41.789Z,13.00
2018-02-09T13:06:10.103Z,13.70
2018-02-09T13:08:38.341Z,13.60
2018-02-09T13:11:06.600Z,13.70
2018-02-09T13:13:36.017Z,14.10
2018-02-09T13:16:04.984Z,14.10
2018-02-09T13:18:48.048Z,14.00
2018-02-09T13:21:16.896Z,14.30
2018-02-09T13:24:03.140Z,14.80
2018-02-09T13:26:31.471Z,14.90
2018-02-09T13:29:00.483Z,15.20
2018-02-09T13:31:28.712Z,14.90
2018-02-09T13:33:57.190Z,15.80
2018-02-09T13:36:43.548Z,15.90
2018-02-09T13:39:11.764Z,15.10
2018-02-09T13:41:40.033Z,15.10
2018-02-09T13:44:08.336Z,15.20
2018-02-09T13:46:36.579Z,14.20
2018-02-09T13:49:06.231Z,14.70
2018-02-09T13:51:35.269Z,16.60
2018-02-09T13:54:04.652Z,16.60
2018-02-09T13:56:33.109Z,17.70
2018-02-09T13:59:02.913Z,17.90
2018-02-09T14:01:31.901Z,18.80
2018-02-09T14:04:01.121Z,18.80
2018-02-09T14:06:29.928Z,18.80
2018-02-09T14:08:58.184Z,17.20
2018-02-09T14:11:26.459Z,16.90
2018-02-09T14:13:54.708Z,17.80
2018-02-09T14:16:22.897Z,18.50
2018-02-09T14:18:51.221Z,18.70
2018-02-09T14:21:19.459Z,19.40
2018-02-09T14:23:47.725Z,18.10
2018-02-09T14:26:16.908Z,17.10
2018-02-09T14:28:45.901Z,17.70
2018-02-09T14:31:14.117Z,17.70
2018-02-09T14:33:42.376Z,18.20
2018-02-09T14:36:10.560Z,18.10
2018-02-09T14:38:38.789Z,18.50
2018-02-09T14:41:07.050Z,18.30
2018-02-09T14:43:35.273Z,18.50
2018-02-09T14:46:03.469Z,18.40
2018-02-09T14:48:31.725Z,18.10
2018-02-09T14:50:59.933Z,17.90
2018-02-09T14:53:28.152Z,17.90
2018-02-09T14:55:57.229Z,17.70
2018-02-09T14:58:25.427Z,17.60
2018-02-09T15:00:54.425Z,17.20
2018-02-09T15:03:22.656Z,17.10
2018-02-09T15:05:50.877Z,17.00
2018-02-09T15:08:19.085Z,16.70
2018-02-09T15:10:47.324Z,16.30
2018-02-09T15:13:15.565Z,15.90
2018-02-09T15:15:43.788Z,15.40
2018-02-09T15:18:12.005Z,14.90
2018-02-09T15:20:40.249Z,14.30
2018-02-09T15:23:08.488Z,13.30
2018-02-09T15:25:36.785Z,12.70
2018-02-09T15:28:04.984Z,12.40
2018-02-09T15:30:33.189Z,12.10
2018-02-09T15:33:01.429Z,11.50
2018-02-09T15:35:29.682Z,9.80
2018-02-09T15:37:57.937Z,9.60
2018-02-09T15:40:26.152Z,8.50
2018-02-09T15:42:54.426Z,7.70
2018-02-09T15:45:23.007Z,7.50
2018-02-09T15:47:51.245Z,7.10
2018-02-09T15:50:19.531Z,6.70
2018-02-09T15:52:47.760Z,6.40
2018-02-09T15:55:15.992Z,6.20
2018-02-09T15:57:44.206Z,5.90
2018-02-09T16:00:13.396Z,5.70
2018-02-09T16:02:41.600Z,5.40
2018-02-09T16:05:11.851Z,4.90
2018-02-09T16:07:40.619Z,4.90
2018-02-09T16:10:08.837Z,4.70
2018-02-09T16:12:37.033Z,4.50
2018-02-09T16:15:05.269Z,4.30
2018-02-09T16:17:33.477Z,4.20
2018-02-09T16:20:01.677Z,4.00
2018-02-09T16:22:30.743Z,3.70
2018-02-09T16:25:00.183Z,3.70
2018-02-09T16:27:28.456Z,3.60
2018-02-09T16:29:56.725Z,3.50
2018-02-09T16:32:25.775Z,3.10
2018-02-09T16:34:53.987Z,3.10
2018-02-09T16:37:23.029Z,2.70
2018-02-09T16:39:51.260Z,2.70
2018-02-09T16:42:19.476Z,2.60
2018-02-09T16:44:47.725Z,2.50
2018-02-09T16:47:15.979Z,2.30
2018-02-09T16:49:44.946Z,2.20
2018-02-09T16:52:13.176Z,2.20
2018-02-09T16:54:41.912Z,2.20
2018-02-09T16:57:10.713Z,2.20
2018-02-09T16:59:39.730Z,2.10
2018-02-09T17:02:07.940Z,2.10
2018-02-09T17:04:36.133Z,2.10
2018-02-09T17:07:04.450Z,2.00
2018-02-09T17:09:32.697Z,2.00
2018-02-09T17:12:00.908Z,1.80
2018-02-09T17:14:29.250Z,1.80
2018-02-09T17:16:57.462Z,1.80
2018-02-09T17:19:26.314Z,1.80
2018-02-09T17:21:54.541Z,1.70
2018-02-09T17:24:22.756Z,1.70
2018-02-09T17:26:51.004Z,1.70
2018-02-09T17:29:19.212Z,1.70
2018-02-09T17:31:48.192Z,1.60
2018-02-09T17:34:16.427Z,1.60
2018-02-09T17:36:44.853Z,1.60
2018-02-09T17:39:13.044Z,1.60
2018-02-09T17:41:42.173Z,1.50
2018-02-09T17:44:10.384Z,1.50
2018-02-09T17:46:38.585Z,1.50
2018-02-09T17:49:07.574Z,1.40
2018-02-09T17:51:36.525Z,1.50
2018-02-09T17:54:04.723Z,1.40
2018-02-09T17:56:32.960Z,1.40
2018-02-09T17:59:01.169Z,1.20
2018-02-09T18:01:29.382Z,1.20
2018-02-09T18:03:57.613Z,1.30
2018-02-09T18:06:26.745Z,1.30
2018-02-09T18:08:54.957Z,1.30
2018-02-09T18:11:23.717Z,1.40
2018-02-09T18:13:51.906Z,1.40
2018-02-09T18:16:20.100Z,1.50
2018-02-09T18:18:48.312Z,1.60
2018-02-09T18:21:17.446Z,1.90
2018-02-09T18:23:45.644Z,1.90
2018-02-09T18:26:13.858Z,2.00
2018-02-09T18:28:43.005Z,2.30
2018-02-09T18:31:11.224Z,2.20
2018-02-09T18:33:40.208Z,2.40
2018-02-09T18:36:09.227Z,2.40
2018-02-09T18:38:37.417Z,2.40
2018-02-09T18:41:05.600Z,2.40
2018-02-09T18:43:33.831Z,2.50
2018-02-09T18:46:02.825Z,2.50
2018-02-09T18:48:31.780Z,2.60
2018-02-09T18:50:59.988Z,2.60
2018-02-09T18:53:28.949Z,2.60
2018-02-09T18:55:57.756Z,2.60
2018-02-09T18:58:26.765Z,2.70
2018-02-09T19:00:54.980Z,2.70
2018-02-09T19:03:23.208Z,2.70
2018-02-09T19:05:52.399Z,2.80
2018-02-09T19:08:21.370Z,2.80
2018-02-09T19:10:49.571Z,2.80
2018-02-09T19:13:18.584Z,2.80
2018-02-09T19:15:46.868Z,2.80
2018-02-09T19:18:15.718Z,2.90
2018-02-09T19:20:44.712Z,2.90
2018-02-09T19:23:13.693Z,2.90
2018-02-09T19:25:41.882Z,2.80
2018-02-09T19:28:10.898Z,3.00
2018-02-09T19:30:40.421Z,3.00
2018-02-09T19:33:08.749Z,3.00
2018-02-09T19:35:37.708Z,3.00
2018-02-09T19:38:05.926Z,2.90
2018-02-09T19:40:35.068Z,2.90
2018-02-09T19:43:03.304Z,2.90
2018-02-09T19:45:31.608Z,2.90
2018-02-09T19:47:59.861Z,2.80
2018-02-09T19:50:28.947Z,2.80
2018-02-09T19:52:57.195Z,2.80
2018-02-09T19:55:25.385Z,2.60
2018-02-09T19:57:54.484Z,2.80
2018-02-09T20:00:23.453Z,2.80
2018-02-09T20:02:51.663Z,2.90
2018-02-09T20:05:19.901Z,2.90
2018-02-09T20:07:48.144Z,2.90
2018-02-09T20:10:16.417Z,3.00
2018-02-09T20:12:44.733Z,3.00
2018-02-09T20:15:13.693Z,3.00
2018-02-09T20:17:42.101Z,3.00
2018-02-09T20:20:10.335Z,3.00
2018-02-09T20:22:38.549Z,3.10
2018-02-09T20:25:07.540Z,3.10
2018-02-09T20:27:36.512Z,3.20
2018-02-09T20:30:04.740Z,3.20
2018-02-09T20:32:32.961Z,3.30
2018-02-09T20:35:01.177Z,3.40
2018-02-09T20:37:29.991Z,3.10
2018-02-09T20:39:58.200Z,3.30
2018-02-09T20:42:26.413Z,3.40
2018-02-09T20:44:54.624Z,3.40
2018-02-09T20:47:22.944Z,3.50
2018-02-09T20:49:51.968Z,3.60
2018-02-09T20:52:20.225Z,3.50
2018-02-09T20:54:49.208Z,3.60
2018-02-09T20:57:18.206Z,3.70
2018-02-09T20:59:47.181Z,3.70
2018-02-09T21:02:16.376Z,3.70
2018-02-09T21:04:44.680Z,3.70
2018-02-09T21:07:12.901Z,3.70
2018-02-09T21:09:41.211Z,3.70
2018-02-09T21:12:10.215Z,3.80
2018-02-09T21:14:38.408Z,3.80
2018-02-09T21:17:06.629Z,3.80
2018-02-09T21:19:35.616Z,3.80
2018-02-09T21:22:03.844Z,3.90
2018-02-09T21:24:33.133Z,3.90
2018-02-09T21:27:01.345Z,3.90
2018-02-09T21:29:29.558Z,3.80
2018-02-09T21:31:58.545Z,3.60
2018-02-09T21:34:26.753Z,3.60
2018-02-09T21:36:55.061Z,3.60
2018-02-09T21:39:23.586Z,3.50
2018-02-09T21:41:52.564Z,3.40
2018-02-09T21:44:20.955Z,3.30
2018-02-09T21:46:49.925Z,3.20
2018-02-09T21:49:18.249Z,3.20
2018-02-09T21:51:46.488Z,3.20
2018-02-09T21:54:14.698Z,3.10
2018-02-09T21:56:42.904Z,3.10
2018-02-09T21:59:11.126Z,3.10
2018-02-09T22:01:39.316Z,3.20
2018-02-09T22:04:07.561Z,3.10
2018-02-09T22:06:36.853Z,3.20
2018-02-09T22:09:05.105Z,3.20
2018-02-09T22:11:33.356Z,3.20
2018-02-09T22:14:01.548Z,3.20
2018-02-09T22:16:29.804Z,3.10
2018-02-09T22:18:58.013Z,3.20
2018-02-09T22:21:26.361Z,3.20
2018-02-09T22:23:54.553Z,3.20
2018-02-09T22:26:22.745Z,3.20
2018-02-09T22:28:50.972Z,3.20
2018-02-09T22:31:19.201Z,3.10
2018-02-09T22:33:47.388Z,3.10
2018-02-09T22:36:16.348Z,3.10
2018-02-09T22:38:44.597Z,3.00
2018-02-09T22:41:12.797Z,3.10
2018-02-09T22:43:41.612Z,3.10
2018-02-09T22:46:10.720Z,3.10
2018-02-09T22:48:38.944Z,3.10
2018-02-09T22:51:07.136Z,3.10
2018-02-09T22:53:35.359Z,3.10
2018-02-09T22:56:03.593Z,3.20
2018-02-09T22:58:31.830Z,3.20
2018-02-09T23:01:00.099Z,3.20
2018-02-09T23:03:28.316Z,3.20
2018-02-09T23:05:56.564Z,3.20
2018-02-09T23:08:24.780Z,3.10
2018-02-09T23:10:54.688Z,3.10
2018-02-09T23:13:23.717Z,3.10
2018-02-09T23:15:51.904Z,3.30
2018-02-09T23:18:20.116Z,3.10
2018-02-09T23:20:48.370Z,3.00
2018-02-09T23:23:16.588Z,2.90
2018-02-09T23:25:45.569Z,2.90
2018-02-09T23:28:14.589Z,2.90
2018-02-09T23:30:42.780Z,3.00
2018-02-09T23:33:11.024Z,2.80
2018-02-09T23:35:39.230Z,2.80
2018-02-09T23:38:07.432Z,2.80
2018-02-09T23:40:35.661Z,2.70
2018-02-09T23:43:03.870Z,2.70
2018-02-09T23:45:32.056Z,2.70
2018-02-09T23:48:00.369Z,2.60
2018-02-09T23:50:28.558Z,2.60
2018-02-09T23:52:56.751Z,2.60
2018-02-09T23:55:24.996Z,2.60
2018-02-09T23:57:53.209Z,2.60
